sensor_id;sensor_type;location;lat;lon;timestamp;pressure;altitude;pressure_sealevel;temperature;humidity
67457;BME280;54319;52.038;4.640;2023-03-01T00:11:17;103419.69;;;-0.32;91.48
67457;BME280;54319;52.038;4.640;2023-03-01T00:14:01;103403.19;;;-0.42;91.63
67457;BME280;54319;52.038;4.640;2023-03-01T00:16:43;103221.44;;;-1.44;91.66
67457;BME280;54319;52.038;4.640;2023-03-01T00:19:52;103401.88;;;-0.33;91.92
67457;BME280;54319;52.038;4.640;2023-03-01T00:22:50;103200.59;;;-1.56;91.92
67457;BME280;54319;52.038;4.640;2023-03-01T00:29:13;102882.25;;;-3.63;92.62
67457;BME280;54319;52.038;4.640;2023-03-01T00:39:24;103100.78;;;-2.14;92.89
67457;BME280;54319;52.038;4.640;2023-03-01T00:42:06;103354.50;;;-0.52;92.81
67457;BME280;54319;52.038;4.640;2023-03-01T00:44:34;103398.41;;;-0.35;92.99
67457;BME280;54319;52.038;4.640;2023-03-01T00:47:01;103388.69;;;-0.38;93.12
67457;BME280;54319;52.038;4.640;2023-03-01T00:49:28;103337.75;;;-0.75;93.14
67457;BME280;54319;52.038;4.640;2023-03-01T00:51:55;103362.78;;;-0.56;93.35
67457;BME280;54319;52.038;4.640;2023-03-01T00:54:21;103393.72;;;-0.32;93.52
67457;BME280;54319;52.038;4.640;2023-03-01T00:56:48;103376.53;;;-0.45;93.45
67457;BME280;54319;52.038;4.640;2023-03-01T00:59:14;103390.63;;;-0.41;93.21
67457;BME280;54319;52.038;4.640;2023-03-01T01:01:42;103367.13;;;-0.54;93.13
67457;BME280;54319;52.038;4.640;2023-03-01T01:04:11;103379.75;;;-0.38;93.86
67457;BME280;54319;52.038;4.640;2023-03-01T01:06:40;103386.06;;;-0.39;93.67
67457;BME280;54319;52.038;4.640;2023-03-01T01:09:09;103390.25;;;-0.34;94.34
67457;BME280;54319;52.038;4.640;2023-03-01T01:11:42;103389.41;;;-0.34;94.06
67457;BME280;54319;52.038;4.640;2023-03-01T01:14:09;103391.41;;;-0.39;93.89
67457;BME280;54319;52.038;4.640;2023-03-01T01:16:36;103389.00;;;-0.44;93.82
67457;BME280;54319;52.038;4.640;2023-03-01T01:19:04;103393.78;;;-0.51;93.69
67457;BME280;54319;52.038;4.640;2023-03-01T01:21:31;103399.44;;;-0.57;93.62
67457;BME280;54319;52.038;4.640;2023-03-01T01:23:58;103383.81;;;-0.66;93.58
67457;BME280;54319;52.038;4.640;2023-03-01T01:26:28;103366.53;;;-0.78;93.45
67457;BME280;54319;52.038;4.640;2023-03-01T01:28:55;103377.03;;;-0.74;93.61
67457;BME280;54319;52.038;4.640;2023-03-01T01:31:22;103250.25;;;-1.49;93.62
67457;BME280;54319;52.038;4.640;2023-03-01T01:33:49;103362.31;;;-0.84;93.55
67457;BME280;54319;52.038;4.640;2023-03-01T01:36:17;103366.19;;;-0.90;93.60
67457;BME280;54319;52.038;4.640;2023-03-01T01:38:44;103353.94;;;-0.95;93.61
67457;BME280;54319;52.038;4.640;2023-03-01T01:41:12;103347.84;;;-0.99;93.57
67457;BME280;54319;52.038;4.640;2023-03-01T01:43:41;103345.97;;;-0.97;93.90
67457;BME280;54319;52.038;4.640;2023-03-01T01:46:16;103335.97;;;-0.93;94.38
67457;BME280;54319;52.038;4.640;2023-03-01T01:48:48;103342.06;;;-0.90;94.42
67457;BME280;54319;52.038;4.640;2023-03-01T01:51:20;103330.16;;;-0.84;94.86
67457;BME280;54319;52.038;4.640;2023-03-01T01:53:52;103314.38;;;-0.90;94.93
67457;BME280;54319;52.038;4.640;2023-03-01T01:56:20;103337.09;;;-0.80;95.36
67457;BME280;54319;52.038;4.640;2023-03-01T01:58:49;103320.03;;;-0.96;94.80
67457;BME280;54319;52.038;4.640;2023-03-01T02:01:16;103323.47;;;-1.12;94.64
67457;BME280;54319;52.038;4.640;2023-03-01T02:03:44;103325.50;;;-1.17;94.33
67457;BME280;54319;52.038;4.640;2023-03-01T02:06:19;103286.28;;;-1.56;94.14
67457;BME280;54319;52.038;4.640;2023-03-01T02:08:50;103349.75;;;-1.39;93.93
67457;BME280;54319;52.038;4.640;2023-03-01T02:11:19;103326.44;;;-1.56;94.13
67457;BME280;54319;52.038;4.640;2023-03-01T02:13:47;103286.03;;;-1.90;94.14
67457;BME280;54319;52.038;4.640;2023-03-01T02:16:15;103330.56;;;-1.68;93.83
67457;BME280;54319;52.038;4.640;2023-03-01T02:18:43;103320.34;;;-1.79;93.93
67457;BME280;54319;52.038;4.640;2023-03-01T02:21:21;103321.41;;;-1.83;93.80
67457;BME280;54319;52.038;4.640;2023-03-01T02:23:53;103274.91;;;-2.21;93.95
67457;BME280;54319;52.038;4.640;2023-03-01T02:26:28;103311.25;;;-1.96;93.83
67457;BME280;54319;52.038;4.640;2023-03-01T02:28:59;103322.31;;;-2.04;94.29
67457;BME280;54319;52.038;4.640;2023-03-01T02:31:26;103271.09;;;-2.36;94.08
67457;BME280;54319;52.038;4.640;2023-03-01T02:34:10;103321.63;;;-2.09;94.05
67457;BME280;54319;52.038;4.640;2023-03-01T02:36:40;103321.75;;;-2.12;94.01
67457;BME280;54319;52.038;4.640;2023-03-01T02:39:09;103277.72;;;-2.44;94.00
67457;BME280;54319;52.038;4.640;2023-03-01T02:41:41;103321.09;;;-2.17;94.13
67457;BME280;54319;52.038;4.640;2023-03-01T02:44:11;103274.97;;;-2.43;94.55
67457;BME280;54319;52.038;4.640;2023-03-01T02:46:44;103314.09;;;-2.20;94.22
67457;BME280;54319;52.038;4.640;2023-03-01T02:49:24;103265.91;;;-2.39;94.23
67457;BME280;54319;52.038;4.640;2023-03-01T02:52:07;103304.31;;;-2.21;94.63
67457;BME280;54319;52.038;4.640;2023-03-01T02:54:42;103248.97;;;-2.60;94.63
67457;BME280;54319;52.038;4.640;2023-03-01T02:57:12;103300.78;;;-2.21;94.57
67457;BME280;54319;52.038;4.640;2023-03-01T02:59:42;103305.19;;;-2.20;94.67
67457;BME280;54319;52.038;4.640;2023-03-01T03:02:19;103304.72;;;-2.09;95.00
67457;BME280;54319;52.038;4.640;2023-03-01T03:05:02;103301.72;;;-2.01;95.17
67457;BME280;54319;52.038;4.640;2023-03-01T03:07:28;103291.00;;;-2.01;95.01
67457;BME280;54319;52.038;4.640;2023-03-01T03:09:55;103292.88;;;-2.04;94.83
67457;BME280;54319;52.038;4.640;2023-03-01T03:12:21;103283.19;;;-2.06;94.78
67457;BME280;54319;52.038;4.640;2023-03-01T03:14:49;103282.31;;;-2.07;95.19
67457;BME280;54319;52.038;4.640;2023-03-01T03:17:16;103262.47;;;-2.22;95.10
67457;BME280;54319;52.038;4.640;2023-03-01T03:19:42;103282.66;;;-2.14;94.88
67457;BME280;54319;52.038;4.640;2023-03-01T03:22:10;103287.25;;;-2.18;95.02
67457;BME280;54319;52.038;4.640;2023-03-01T03:24:37;103280.25;;;-2.21;94.98
67457;BME280;54319;52.038;4.640;2023-03-01T03:27:04;103276.00;;;-2.25;94.93
67457;BME280;54319;52.038;4.640;2023-03-01T03:29:31;103268.06;;;-2.28;94.97
67457;BME280;54319;52.038;4.640;2023-03-01T03:31:59;103265.09;;;-2.41;95.28
67457;BME280;54319;52.038;4.640;2023-03-01T03:34:26;103284.38;;;-2.34;95.14
67457;BME280;54319;52.038;4.640;2023-03-01T03:36:53;103282.78;;;-2.38;94.93
67457;BME280;54319;52.038;4.640;2023-03-01T03:39:23;103283.84;;;-2.42;94.95
67457;BME280;54319;52.038;4.640;2023-03-01T03:41:49;103275.19;;;-2.48;94.72
67457;BME280;54319;52.038;4.640;2023-03-01T03:44:16;103278.84;;;-2.50;94.84
67457;BME280;54319;52.038;4.640;2023-03-01T03:46:43;103269.22;;;-2.54;94.85
67457;BME280;54319;52.038;4.640;2023-03-01T03:49:11;103256.38;;;-2.67;95.24
67457;BME280;54319;52.038;4.640;2023-03-01T03:51:37;103268.53;;;-2.59;94.76
67457;BME280;54319;52.038;4.640;2023-03-01T03:54:04;103270.50;;;-2.63;94.92
67457;BME280;54319;52.038;4.640;2023-03-01T03:56:31;103275.03;;;-2.65;95.10
67457;BME280;54319;52.038;4.640;2023-03-01T03:58:57;103267.06;;;-2.67;94.99
67457;BME280;54319;52.038;4.640;2023-03-01T04:01:24;103261.88;;;-2.70;95.01
67457;BME280;54319;52.038;4.640;2023-03-01T04:03:51;103268.19;;;-2.72;95.23
67457;BME280;54319;52.038;4.640;2023-03-01T04:06:21;103174.50;;;-3.31;94.93
67457;BME280;54319;52.038;4.640;2023-03-01T04:08:47;103271.00;;;-2.76;95.18
67457;BME280;54319;52.038;4.640;2023-03-01T04:11:16;103271.88;;;-2.75;94.89
67457;BME280;54319;52.038;4.640;2023-03-01T04:13:56;103238.31;;;-3.03;95.23
67457;BME280;54319;52.038;4.640;2023-03-01T04:16:24;103274.69;;;-2.78;95.07
67457;BME280;54319;52.038;4.640;2023-03-01T04:18:51;103268.47;;;-2.79;95.50
67457;BME280;54319;52.038;4.640;2023-03-01T04:21:20;103243.13;;;-2.91;95.66
67457;BME280;54319;52.038;4.640;2023-03-01T04:23:47;103272.88;;;-2.78;95.58
67457;BME280;54319;52.038;4.640;2023-03-01T04:26:17;103183.31;;;-3.29;95.50
67457;BME280;54319;52.038;4.640;2023-03-01T04:28:44;103269.34;;;-2.78;95.17
67457;BME280;54319;52.038;4.640;2023-03-01T04:31:14;103264.97;;;-2.81;95.16
67457;BME280;54319;52.038;4.640;2023-03-01T04:33:45;103234.75;;;-3.03;95.65
67457;BME280;54319;52.038;4.640;2023-03-01T04:36:15;103246.00;;;-2.95;95.65
67457;BME280;54319;52.038;4.640;2023-03-01T04:38:44;103106.16;;;-3.80;95.52
67457;BME280;54319;52.038;4.640;2023-03-01T04:41:13;103262.63;;;-2.88;95.42
67457;BME280;54319;52.038;4.640;2023-03-01T04:43:40;103137.63;;;-3.66;95.18
67457;BME280;54319;52.038;4.640;2023-03-01T04:46:08;103175.88;;;-3.43;95.62
67457;BME280;54319;52.038;4.640;2023-03-01T04:48:36;103246.13;;;-2.98;95.63
67457;BME280;54319;52.038;4.640;2023-03-01T04:51:03;103106.38;;;-3.85;95.31
67457;BME280;54319;52.038;4.640;2023-03-01T04:53:31;103248.94;;;-3.01;95.82
67457;BME280;54319;52.038;4.640;2023-03-01T04:55:59;103209.75;;;-3.23;95.55
67457;BME280;54319;52.038;4.640;2023-03-01T04:58:26;103239.06;;;-2.99;95.92
67457;BME280;54319;52.038;4.640;2023-03-01T05:00:54;103183.63;;;-3.37;95.88
67457;BME280;54319;52.038;4.640;2023-03-01T05:03:21;103229.47;;;-3.05;95.75
67457;BME280;54319;52.038;4.640;2023-03-01T05:05:49;103159.34;;;-3.53;95.29
67457;BME280;54319;52.038;4.640;2023-03-01T05:08:17;103157.88;;;-3.60;95.48
67457;BME280;54319;52.038;4.640;2023-03-01T05:10:45;103241.53;;;-3.17;95.38
67457;BME280;54319;52.038;4.640;2023-03-01T05:13:14;103211.06;;;-3.33;95.38
67457;BME280;54319;52.038;4.640;2023-03-01T05:15:46;103227.38;;;-3.41;95.30
67457;BME280;54319;52.038;4.640;2023-03-01T05:18:13;103226.16;;;-3.32;95.55
67457;BME280;54319;52.038;4.640;2023-03-01T05:20:40;103228.06;;;-3.36;95.53
67457;BME280;54319;52.038;4.640;2023-03-01T05:23:07;103216.72;;;-3.41;95.47
67457;BME280;54319;52.038;4.640;2023-03-01T05:25:34;103219.53;;;-3.46;95.55
67457;BME280;54319;52.038;4.640;2023-03-01T05:28:07;103196.19;;;-3.63;95.39
67457;BME280;54319;52.038;4.640;2023-03-01T05:30:40;103118.19;;;-4.14;95.24
67457;BME280;54319;52.038;4.640;2023-03-01T05:33:08;103201.41;;;-3.60;95.27
67457;BME280;54319;52.038;4.640;2023-03-01T05:35:39;103170.03;;;-3.99;95.11
67457;BME280;54319;52.038;4.640;2023-03-01T05:38:07;103190.00;;;-3.64;95.41
67457;BME280;54319;52.038;4.640;2023-03-01T05:40:34;103178.53;;;-3.66;95.07
67457;BME280;54319;52.038;4.640;2023-03-01T05:43:01;103104.88;;;-4.14;95.26
67457;BME280;54319;52.038;4.640;2023-03-01T05:45:31;103176.00;;;-3.69;94.96
67457;BME280;54319;52.038;4.640;2023-03-01T05:48:00;103182.25;;;-3.70;95.35
67457;BME280;54319;52.038;4.640;2023-03-01T05:50:28;103183.19;;;-3.71;95.12
67457;BME280;54319;52.038;4.640;2023-03-01T05:52:58;103184.91;;;-3.70;95.07
67457;BME280;54319;52.038;4.640;2023-03-01T05:55:28;103034.56;;;-4.58;95.07
67457;BME280;54319;52.038;4.640;2023-03-01T05:57:58;103155.13;;;-3.81;95.32
67457;BME280;54319;52.038;4.640;2023-03-01T06:00:25;103166.41;;;-3.74;95.40
67457;BME280;54319;52.038;4.640;2023-03-01T06:02:53;103174.59;;;-3.79;95.32
67457;BME280;54319;52.038;4.640;2023-03-01T06:05:22;103171.19;;;-3.83;94.90
67457;BME280;54319;52.038;4.640;2023-03-01T06:07:49;103133.38;;;-4.16;95.10
67457;BME280;54319;52.038;4.640;2023-03-01T06:10:17;103026.84;;;-4.89;94.40
67457;BME280;54319;52.038;4.640;2023-03-01T06:12:43;103150.34;;;-4.19;94.43
67457;BME280;54319;52.038;4.640;2023-03-01T06:15:11;103144.25;;;-4.23;94.74
67457;BME280;54319;52.038;4.640;2023-03-01T06:17:42;103114.97;;;-4.46;94.79
67457;BME280;54319;52.038;4.640;2023-03-01T06:20:10;103147.28;;;-4.32;94.68
67457;BME280;54319;52.038;4.640;2023-03-01T06:22:39;103176.03;;;-4.16;94.47
67457;BME280;54319;52.038;4.640;2023-03-01T06:25:06;103175.31;;;-4.22;94.41
67457;BME280;54319;52.038;4.640;2023-03-01T06:27:33;103176.44;;;-4.27;94.10
67457;BME280;54319;52.038;4.640;2023-03-01T06:29:59;103163.53;;;-4.40;94.36
67457;BME280;54319;52.038;4.640;2023-03-01T06:32:26;103100.00;;;-4.74;94.78
67457;BME280;54319;52.038;4.640;2023-03-01T06:34:53;103166.81;;;-4.31;94.34
67457;BME280;54319;52.038;4.640;2023-03-01T06:37:20;103186.91;;;-4.23;94.42
67457;BME280;54319;52.038;4.640;2023-03-01T06:39:48;103179.84;;;-4.24;94.34
67457;BME280;54319;52.038;4.640;2023-03-01T06:42:14;103092.34;;;-4.84;94.47
67457;BME280;54319;52.038;4.640;2023-03-01T06:44:41;103187.09;;;-4.27;94.22
67457;BME280;54319;52.038;4.640;2023-03-01T06:47:08;103124.31;;;-4.60;94.67
67457;BME280;54319;52.038;4.640;2023-03-01T06:49:35;103191.91;;;-4.13;94.51
67457;BME280;54319;52.038;4.640;2023-03-01T06:52:02;103186.59;;;-4.13;94.23
67457;BME280;54319;52.038;4.640;2023-03-01T06:54:28;103171.84;;;-4.24;94.65
67457;BME280;54319;52.038;4.640;2023-03-01T06:56:56;103077.19;;;-4.82;94.35
67457;BME280;54319;52.038;4.640;2023-03-01T06:59:23;103156.88;;;-4.28;94.14
67457;BME280;54319;52.038;4.640;2023-03-01T07:01:51;103081.22;;;-4.71;94.27
67457;BME280;54319;52.038;4.640;2023-03-01T07:04:17;103196.59;;;-3.96;94.68
67457;BME280;54319;52.038;4.640;2023-03-01T07:06:44;103165.88;;;-4.07;94.45
67457;BME280;54319;52.038;4.640;2023-03-01T07:09:10;103187.38;;;-3.87;94.49
67457;BME280;54319;52.038;4.640;2023-03-01T07:11:37;103163.03;;;-4.02;94.21
67457;BME280;54319;52.038;4.640;2023-03-01T07:14:05;103191.44;;;-3.77;94.48
67457;BME280;54319;52.038;4.640;2023-03-01T07:16:32;103151.28;;;-3.96;94.26
67457;BME280;54319;52.038;4.640;2023-03-01T07:18:58;103142.50;;;-4.00;94.73
67457;BME280;54319;52.038;4.640;2023-03-01T07:21:25;103165.84;;;-3.83;94.76
67457;BME280;54319;52.038;4.640;2023-03-01T07:23:52;103192.44;;;-3.57;94.63
67457;BME280;54319;52.038;4.640;2023-03-01T07:26:18;103179.25;;;-3.62;94.70
67457;BME280;54319;52.038;4.640;2023-03-01T07:28:45;103201.66;;;-3.44;95.03
67457;BME280;54319;52.038;4.640;2023-03-01T07:31:13;103173.75;;;-3.57;94.79
67457;BME280;54319;52.038;4.640;2023-03-01T07:33:40;103143.16;;;-3.71;94.70
67457;BME280;54319;52.038;4.640;2023-03-01T07:36:07;103198.44;;;-3.30;94.75
67457;BME280;54319;52.038;4.640;2023-03-01T07:38:35;103202.66;;;-3.24;94.50
67457;BME280;54319;52.038;4.640;2023-03-01T07:41:03;103099.81;;;-3.76;94.62
67457;BME280;54319;52.038;4.640;2023-03-01T07:43:31;103201.09;;;-3.08;94.81
67457;BME280;54319;52.038;4.640;2023-03-01T07:45:58;103172.19;;;-3.18;95.07
67457;BME280;54319;52.038;4.640;2023-03-01T07:48:27;103194.84;;;-2.86;94.99
67457;BME280;54319;52.038;4.640;2023-03-01T07:50:53;103208.47;;;-2.71;94.83
67457;BME280;54319;52.038;4.640;2023-03-01T07:53:20;103142.69;;;-2.95;95.37
67457;BME280;54319;52.038;4.640;2023-03-01T07:55:47;103177.69;;;-2.20;95.97
67457;BME280;54319;52.038;4.640;2023-03-01T07:58:14;103196.38;;;-1.06;95.85
67457;BME280;54319;52.038;4.640;2023-03-01T08:00:44;103178.69;;;0.10;93.76
67457;BME280;54319;52.038;4.640;2023-03-01T08:03:11;103201.03;;;1.36;89.56
67457;BME280;54319;52.038;4.640;2023-03-01T08:05:39;103182.41;;;2.05;85.97
67457;BME280;54319;52.038;4.640;2023-03-01T08:08:05;103199.78;;;2.70;83.42
67457;BME280;54319;52.038;4.640;2023-03-01T08:10:32;103129.81;;;2.41;81.06
67457;BME280;54319;52.038;4.640;2023-03-01T08:12:58;103185.41;;;2.42;78.83
67457;BME280;54319;52.038;4.640;2023-03-01T08:15:25;103192.84;;;2.24;78.36
67457;BME280;54319;52.038;4.640;2023-03-01T08:17:52;103138.97;;;1.68;78.26
67457;BME280;54319;52.038;4.640;2023-03-01T08:20:18;103185.56;;;1.68;79.36
67457;BME280;54319;52.038;4.640;2023-03-01T08:22:46;103162.22;;;1.40;80.82
67457;BME280;54319;52.038;4.640;2023-03-01T08:25:13;103184.88;;;1.50;81.82
67457;BME280;54319;52.038;4.640;2023-03-01T08:27:39;103186.41;;;1.40;81.39
67457;BME280;54319;52.038;4.640;2023-03-01T08:30:07;103172.38;;;1.20;81.21
67457;BME280;54319;52.038;4.640;2023-03-01T08:32:38;103124.69;;;0.93;81.20
67457;BME280;54319;52.038;4.640;2023-03-01T08:35:05;103189.94;;;1.26;81.03
67457;BME280;54319;52.038;4.640;2023-03-01T08:37:32;103185.34;;;1.28;80.21
67457;BME280;54319;52.038;4.640;2023-03-01T08:40:01;103138.25;;;1.06;80.15
67457;BME280;54319;52.038;4.640;2023-03-01T08:42:29;103183.72;;;1.40;79.61
67457;BME280;54319;52.038;4.640;2023-03-01T08:44:55;103133.59;;;1.24;80.25
67457;BME280;54319;52.038;4.640;2023-03-01T08:47:24;103178.78;;;1.63;80.32
67457;BME280;54319;52.038;4.640;2023-03-01T08:49:51;103174.72;;;1.70;79.44
67457;BME280;54319;52.038;4.640;2023-03-01T08:52:18;103178.19;;;1.86;79.57
67457;BME280;54319;52.038;4.640;2023-03-01T08:54:52;103180.31;;;1.96;78.86
67457;BME280;54319;52.038;4.640;2023-03-01T08:57:20;103181.44;;;2.06;77.70
67457;BME280;54319;52.038;4.640;2023-03-01T08:59:48;103175.84;;;2.09;77.12
67457;BME280;54319;52.038;4.640;2023-03-01T09:02:17;103179.47;;;2.23;77.69
67457;BME280;54319;52.038;4.640;2023-03-01T09:04:44;103174.56;;;2.29;77.80
67457;BME280;54319;52.038;4.640;2023-03-01T09:07:11;103149.78;;;2.24;77.32
67457;BME280;54319;52.038;4.640;2023-03-01T09:09:37;103170.56;;;2.50;75.75
67457;BME280;54319;52.038;4.640;2023-03-01T09:12:05;103167.16;;;2.60;74.81
67457;BME280;54319;52.038;4.640;2023-03-01T09:14:33;103159.88;;;2.75;74.24
67457;BME280;54319;52.038;4.640;2023-03-01T09:17:02;103159.25;;;2.85;73.31
67457;BME280;54319;52.038;4.640;2023-03-01T09:19:29;103127.19;;;2.67;71.76
67457;BME280;54319;52.038;4.640;2023-03-01T09:21:55;103108.00;;;2.72;71.24
67457;BME280;54319;52.038;4.640;2023-03-01T09:24:23;103158.13;;;3.15;70.76
67457;BME280;54319;52.038;4.640;2023-03-01T09:26:53;103090.78;;;2.74;70.04
67457;BME280;54319;52.038;4.640;2023-03-01T09:29:20;103153.84;;;3.38;69.77
67457;BME280;54319;52.038;4.640;2023-03-01T09:31:48;103123.09;;;3.28;68.54
67457;BME280;54319;52.038;4.640;2023-03-01T09:34:15;103141.63;;;3.45;67.94
67457;BME280;54319;52.038;4.640;2023-03-01T09:36:49;103139.38;;;3.52;68.19
67457;BME280;54319;52.038;4.640;2023-03-01T09:39:16;103104.72;;;3.46;67.56
67457;BME280;54319;52.038;4.640;2023-03-01T09:41:47;103147.25;;;3.81;66.84
67457;BME280;54319;52.038;4.640;2023-03-01T09:44:29;103138.16;;;3.82;65.25
67457;BME280;54319;52.038;4.640;2023-03-01T09:46:59;103144.38;;;3.96;65.85
67457;BME280;54319;52.038;4.640;2023-03-01T09:49:28;103120.31;;;3.93;66.14
67457;BME280;54319;52.038;4.640;2023-03-01T09:52:00;103122.66;;;3.97;65.49
67457;BME280;54319;52.038;4.640;2023-03-01T09:54:27;103147.78;;;4.24;65.13
67457;BME280;54319;52.038;4.640;2023-03-01T09:57:01;103129.66;;;4.13;64.32
67457;BME280;54319;52.038;4.640;2023-03-01T09:59:37;103136.94;;;4.37;64.28
67457;BME280;54319;52.038;4.640;2023-03-01T10:02:24;103146.16;;;4.45;63.85
67457;BME280;54319;52.038;4.640;2023-03-01T10:04:55;103065.50;;;4.03;62.81
67457;BME280;54319;52.038;4.640;2023-03-01T10:07:31;103139.25;;;4.66;62.28
67457;BME280;54319;52.038;4.640;2023-03-01T10:10:00;103118.84;;;4.61;61.76
67457;BME280;54319;52.038;4.640;2023-03-01T10:12:33;103141.03;;;4.78;62.76
67457;BME280;54319;52.038;4.640;2023-03-01T10:15:05;103129.19;;;4.68;62.92
67457;BME280;54319;52.038;4.640;2023-03-01T10:17:41;103071.31;;;4.70;62.39
67457;BME280;54319;52.038;4.640;2023-03-01T10:20:19;103127.97;;;5.19;62.00
67457;BME280;54319;52.038;4.640;2023-03-01T10:22:46;103123.69;;;5.16;62.18
67457;BME280;54319;52.038;4.640;2023-03-01T10:25:20;103079.50;;;4.93;60.30
67457;BME280;54319;52.038;4.640;2023-03-01T10:27:52;103111.16;;;5.27;61.38
67457;BME280;54319;52.038;4.640;2023-03-01T10:30:21;103105.00;;;5.36;61.15
67457;BME280;54319;52.038;4.640;2023-03-01T10:32:52;103104.63;;;5.29;59.74
67457;BME280;54319;52.038;4.640;2023-03-01T10:35:22;103089.59;;;5.25;61.35
67457;BME280;54319;52.038;4.640;2023-03-01T10:38:03;103102.94;;;5.40;60.23
67457;BME280;54319;52.038;4.640;2023-03-01T10:40:30;103101.69;;;5.44;60.18
67457;BME280;54319;52.038;4.640;2023-03-01T10:42:58;103095.06;;;5.48;60.01
67457;BME280;54319;52.038;4.640;2023-03-01T10:45:33;103068.22;;;5.33;59.32
67457;BME280;54319;52.038;4.640;2023-03-01T10:48:11;103087.03;;;5.46;58.89
67457;BME280;54319;52.038;4.640;2023-03-01T10:50:40;103098.25;;;5.53;60.78
67457;BME280;54319;52.038;4.640;2023-03-01T10:53:19;103095.53;;;5.76;59.65
67457;BME280;54319;52.038;4.640;2023-03-01T10:55:56;103092.19;;;5.84;59.89
67457;BME280;54319;52.038;4.640;2023-03-01T10:58:28;103078.16;;;5.78;58.57
67457;BME280;54319;52.038;4.640;2023-03-01T11:00:56;103021.22;;;5.46;57.87
67457;BME280;54319;52.038;4.640;2023-03-01T11:03:26;103028.97;;;5.62;58.41
67457;BME280;54319;52.038;4.640;2023-03-01T11:05:59;103073.06;;;5.97;58.48
67457;BME280;54319;52.038;4.640;2023-03-01T11:08:31;103047.50;;;5.67;58.21
67457;BME280;54319;52.038;4.640;2023-03-01T11:11:14;103049.50;;;5.76;58.44
67457;BME280;54319;52.038;4.640;2023-03-01T11:13:54;103057.38;;;5.79;57.36
67457;BME280;54319;52.038;4.640;2023-03-01T11:16:31;102996.59;;;5.49;57.85
67457;BME280;54319;52.038;4.640;2023-03-01T11:19:11;102988.72;;;5.46;57.94
67457;BME280;54319;52.038;4.640;2023-03-01T11:21:42;103039.09;;;6.04;57.09
67457;BME280;54319;52.038;4.640;2023-03-01T11:24:13;103039.50;;;6.32;57.07
67457;BME280;54319;52.038;4.640;2023-03-01T11:26:46;102979.97;;;6.09;55.56
67457;BME280;54319;52.038;4.640;2023-03-01T11:29:21;103001.72;;;6.19;53.45
67457;BME280;54319;52.038;4.640;2023-03-01T11:31:52;103037.97;;;6.39;55.67
67457;BME280;54319;52.038;4.640;2023-03-01T11:34:35;103016.34;;;6.28;53.83
67457;BME280;54319;52.038;4.640;2023-03-01T11:37:12;103036.00;;;6.41;54.22
67457;BME280;54319;52.038;4.640;2023-03-01T11:39:51;103023.84;;;6.35;54.13
67457;BME280;54319;52.038;4.640;2023-03-01T11:42:20;103029.47;;;6.44;53.73
67457;BME280;54319;52.038;4.640;2023-03-01T11:44:54;103030.72;;;6.40;55.40
67457;BME280;54319;52.038;4.640;2023-03-01T11:47:29;103023.13;;;6.33;54.96
67457;BME280;54319;52.038;4.640;2023-03-01T11:50:14;103031.56;;;6.40;54.11
67457;BME280;54319;52.038;4.640;2023-03-01T11:52:49;103002.06;;;6.26;52.87
67457;BME280;54319;52.038;4.640;2023-03-01T11:58:35;103013.38;;;6.31;51.53
67457;BME280;54319;52.038;4.640;2023-03-01T12:01:18;103005.97;;;6.33;48.94
67457;BME280;54319;52.038;4.640;2023-03-01T12:04:14;102979.91;;;6.20;49.38
67457;BME280;54319;52.038;4.640;2023-03-01T12:06:51;102909.59;;;5.86;49.23
67457;BME280;54319;52.038;4.640;2023-03-01T12:09:31;102914.75;;;5.89;49.45
67457;BME280;54319;52.038;4.640;2023-03-01T12:12:27;102995.47;;;6.40;49.34
67457;BME280;54319;52.038;4.640;2023-03-01T12:15:08;102984.03;;;6.57;48.89
67457;BME280;54319;52.038;4.640;2023-03-01T12:18:03;102986.06;;;6.65;48.36
67457;BME280;54319;52.038;4.640;2023-03-01T12:20:38;102948.00;;;6.45;48.58
67457;BME280;54319;52.038;4.640;2023-03-01T12:23:25;102975.56;;;6.72;48.84
67457;BME280;54319;52.038;4.640;2023-03-01T12:26:03;102979.91;;;6.84;49.82
67457;BME280;54319;52.038;4.640;2023-03-01T12:28:50;102974.34;;;6.86;50.81
67457;BME280;54319;52.038;4.640;2023-03-01T12:31:50;102955.38;;;6.86;51.26
67457;BME280;54319;52.038;4.640;2023-03-01T12:34:31;102951.66;;;6.87;51.05
67457;BME280;54319;52.038;4.640;2023-03-01T12:37:11;102947.22;;;6.86;51.42
67457;BME280;54319;52.038;4.640;2023-03-01T12:39:50;102957.09;;;6.97;50.63
67457;BME280;54319;52.038;4.640;2023-03-01T12:42:25;102942.78;;;6.85;50.62
67457;BME280;54319;52.038;4.640;2023-03-01T12:45:30;102948.66;;;6.90;50.95
67457;BME280;54319;52.038;4.640;2023-03-01T12:48:15;102936.81;;;6.91;51.48
67457;BME280;54319;52.038;4.640;2023-03-01T12:50:47;102953.00;;;7.02;49.93
67457;BME280;54319;52.038;4.640;2023-03-01T12:53:22;102933.56;;;6.97;46.68
67457;BME280;54319;52.038;4.640;2023-03-01T12:55:56;102946.56;;;7.03;47.22
67457;BME280;54319;52.038;4.640;2023-03-01T12:58:29;102949.44;;;7.12;47.21
67457;BME280;54319;52.038;4.640;2023-03-01T13:01:12;102920.94;;;6.86;49.01
67457;BME280;54319;52.038;4.640;2023-03-01T13:03:56;102954.38;;;7.28;46.96
67457;BME280;54319;52.038;4.640;2023-03-01T13:06:32;102950.41;;;7.42;47.53
67457;BME280;54319;52.038;4.640;2023-03-01T13:09:10;102960.94;;;7.35;47.85
67457;BME280;54319;52.038;4.640;2023-03-01T13:11:42;102959.13;;;7.35;45.67
67457;BME280;54319;52.038;4.640;2023-03-01T13:14:36;102950.41;;;7.42;46.12
67457;BME280;54319;52.038;4.640;2023-03-01T13:17:04;102940.25;;;7.44;45.99
67457;BME280;54319;52.038;4.640;2023-03-01T13:19:31;102928.94;;;7.29;45.96
67457;BME280;54319;52.038;4.640;2023-03-01T13:22:28;102947.56;;;7.53;45.41
67457;BME280;54319;52.038;4.640;2023-03-01T13:25:12;102935.03;;;7.72;45.26
67457;BME280;54319;52.038;4.640;2023-03-01T13:27:40;102935.88;;;7.92;45.05
67457;BME280;54319;52.038;4.640;2023-03-01T13:30:42;102919.28;;;8.05;44.47
67457;BME280;54319;52.038;4.640;2023-03-01T13:33:41;102908.72;;;7.92;45.23
67457;BME280;54319;52.038;4.640;2023-03-01T13:36:10;102905.28;;;8.00;45.31
67457;BME280;54319;52.038;4.640;2023-03-01T13:38:55;102893.81;;;7.96;44.59
67457;BME280;54319;52.038;4.640;2023-03-01T13:41:48;102886.81;;;7.93;45.13